Keene, NH

4:58 AM EDT on April 23, 2017 (GMT -0400)
Court St. | | Change Station

Elev 522 ft 42.94 °N, 72.29 °W | Updated 22 seconds ago

Mostly Cloudy
Mostly Cloudy
33.4 °F
Feels Like 33 °F
N
0.0
Wind Variable Wind from WSW

Today
High -- | Low -- °F
--% Chance of Precip.
Yesterday
High -- | Low -- °F
Precip. -- in
Pressure 30.09 in
Visibility 6.0 miles
Clouds Mostly Cloudy 3800 ft
Windchill 33 °F
Dew Point 31 °F
Humidity 93%
Rainfall 0.00 in
Snow Depth Not available.
5:54 AM 7:41 PM
Waning Crescent, 13% visible
METAR KEEN 230856Z AUTO 00000KT 6SM BR BKN038 00/00 A3003 RMK AO2 SLP189 T00000000 50003 FZRANO
Pressure 30.09 in
Visibility 6.0 miles
Clouds Mostly Cloudy 3800 ft
Windchill 33 °F
Dew Point 31 °F
Humidity 93%
Rainfall 0.00 in
Snow Depth Not available.
5:54 AM 7:41 PM
Waning Crescent, 13% visible
METAR KEEN 230856Z AUTO 00000KT 6SM BR BKN038 00/00 A3003 RMK AO2 SLP189 T00000000 50003 FZRANO

Get Severe Weather Alerts

Thanks for signing up!

Be on the lookout for a verification email in your inbox.

You'll start receiving the daily forecast at 8 AM.

×

10-Day Weather Forecast

Almanac

Astronomy

Apr. 23, 2017 Rise Set
Actual Time
Civil Twilight
Nautical Twilight
Astronomical Twilight
Moon
Length of Visible Light
Length of Day
Tomorrow will be .
, % of the Moon is Illuminated

Today's Extremes

State Highs State Lows

Community

WunderPhotos

WunderBlog® & News

Nearby

Air Quality

  Air Quality AQ Index Pollutant
Not available.

Snow Depth

Station Depth Elevation

Earthquake Activity

City Distance Mag. Time & Date
Minimum magnitude displayed is 2.5.

Coastal Water Temperatures

Place Temperature

Stations

Nearby Weather Stations

Station Location Temp. Windchill Dew Point Humidity Wind Precip. Elev Updated Type
                   

Watches & Warnings

There are currently no watches in effect.